sensor_id;sensor_type;location;lat;lon;timestamp;temperature;humidity
23079;DHT22;11707;50.830;4.364;2022-07-23T00:01:02;17.90;99.90
23079;DHT22;11707;50.830;4.364;2022-07-23T00:03:27;17.90;99.90
23079;DHT22;11707;50.830;4.364;2022-07-23T00:05:53;17.90;99.90
23079;DHT22;11707;50.830;4.364;2022-07-23T00:08:19;17.80;99.90
23079;DHT22;11707;50.830;4.364;2022-07-23T00:10:44;17.70;99.90
23079;DHT22;11707;50.830;4.364;2022-07-23T00:13:10;17.70;99.90
23079;DHT22;11707;50.830;4.364;2022-07-23T00:15:36;17.70;99.90
23079;DHT22;11707;50.830;4.364;2022-07-23T00:18:12;17.70;99.90
23079;DHT22;11707;50.830;4.364;2022-07-23T00:20:38;17.60;99.90
23079;DHT22;11707;50.830;4.364;2022-07-23T00:23:04;17.60;99.90
23079;DHT22;11707;50.830;4.364;2022-07-23T00:25:29;17.50;99.90
23079;DHT22;11707;50.830;4.364;2022-07-23T00:27:55;17.50;99.90
23079;DHT22;11707;50.830;4.364;2022-07-23T00:30:21;17.50;99.90
23079;DHT22;11707;50.830;4.364;2022-07-23T00:32:55;17.50;99.90
23079;DHT22;11707;50.830;4.364;2022-07-23T00:35:24;17.50;99.90
23079;DHT22;11707;50.830;4.364;2022-07-23T00:37:50;17.50;99.90
23079;DHT22;11707;50.830;4.364;2022-07-23T00:40:16;17.50;99.90
23079;DHT22;11707;50.830;4.364;2022-07-23T00:42:42;17.50;99.90
23079;DHT22;11707;50.830;4.364;2022-07-23T00:45:08;17.40;99.90
23079;DHT22;11707;50.830;4.364;2022-07-23T00:47:34;17.40;99.90
23079;DHT22;11707;50.830;4.364;2022-07-23T00:50:00;17.40;99.90
23079;DHT22;11707;50.830;4.364;2022-07-23T00:52:26;17.30;99.90
23079;DHT22;11707;50.830;4.364;2022-07-23T00:54:51;17.50;99.90
23079;DHT22;11707;50.830;4.364;2022-07-23T00:57:17;17.40;99.90
23079;DHT22;11707;50.830;4.364;2022-07-23T00:59:43;17.40;99.90
23079;DHT22;11707;50.830;4.364;2022-07-23T01:02:09;17.20;99.90
23079;DHT22;11707;50.830;4.364;2022-07-23T01:04:35;17.30;99.90
23079;DHT22;11707;50.830;4.364;2022-07-23T01:07:01;17.30;99.90
23079;DHT22;11707;50.830;4.364;2022-07-23T01:09:27;17.30;99.90
23079;DHT22;11707;50.830;4.364;2022-07-23T01:11:54;17.40;99.90
23079;DHT22;11707;50.830;4.364;2022-07-23T01:14:21;17.40;99.90
23079;DHT22;11707;50.830;4.364;2022-07-23T01:16:48;17.50;99.90
23079;DHT22;11707;50.830;4.364;2022-07-23T01:19:15;17.40;99.90
23079;DHT22;11707;50.830;4.364;2022-07-23T01:21:44;17.20;99.90
23079;DHT22;11707;50.830;4.364;2022-07-23T01:24:11;17.20;99.90
23079;DHT22;11707;50.830;4.364;2022-07-23T01:26:37;17.10;99.90
23079;DHT22;11707;50.830;4.364;2022-07-23T01:29:04;17.00;99.90
23079;DHT22;11707;50.830;4.364;2022-07-23T01:31:30;16.80;99.90
23079;DHT22;11707;50.830;4.364;2022-07-23T01:33:56;16.80;99.90
23079;DHT22;11707;50.830;4.364;2022-07-23T01:36:21;16.80;99.90
23079;DHT22;11707;50.830;4.364;2022-07-23T01:38:48;16.70;99.90
23079;DHT22;11707;50.830;4.364;2022-07-23T01:41:13;16.70;99.90
23079;DHT22;11707;50.830;4.364;2022-07-23T01:43:39;16.70;99.90
23079;DHT22;11707;50.830;4.364;2022-07-23T01:46:05;16.80;99.90
23079;DHT22;11707;50.830;4.364;2022-07-23T01:48:30;16.80;99.90
23079;DHT22;11707;50.830;4.364;2022-07-23T01:50:56;16.90;99.90
23079;DHT22;11707;50.830;4.364;2022-07-23T01:53:22;16.80;99.90
23079;DHT22;11707;50.830;4.364;2022-07-23T01:55:47;16.90;99.90
23079;DHT22;11707;50.830;4.364;2022-07-23T01:58:13;16.90;99.90
23079;DHT22;11707;50.830;4.364;2022-07-23T02:00:40;16.80;99.90
23079;DHT22;11707;50.830;4.364;2022-07-23T02:03:06;16.70;99.90
23079;DHT22;11707;50.830;4.364;2022-07-23T02:05:31;16.60;99.90
23079;DHT22;11707;50.830;4.364;2022-07-23T02:07:58;16.50;99.90
23079;DHT22;11707;50.830;4.364;2022-07-23T02:10:25;16.40;99.90
23079;DHT22;11707;50.830;4.364;2022-07-23T02:12:51;16.50;99.90
23079;DHT22;11707;50.830;4.364;2022-07-23T02:15:16;16.60;99.90
23079;DHT22;11707;50.830;4.364;2022-07-23T02:17:42;16.60;99.90
23079;DHT22;11707;50.830;4.364;2022-07-23T02:20:09;16.70;99.90
23079;DHT22;11707;50.830;4.364;2022-07-23T02:22:35;16.80;99.90
23079;DHT22;11707;50.830;4.364;2022-07-23T02:25:01;16.80;99.90
23079;DHT22;11707;50.830;4.364;2022-07-23T02:27:27;16.90;99.90
23079;DHT22;11707;50.830;4.364;2022-07-23T02:29:53;16.90;99.90
23079;DHT22;11707;50.830;4.364;2022-07-23T02:32:19;16.90;99.90
23079;DHT22;11707;50.830;4.364;2022-07-23T02:34:47;17.00;99.90
23079;DHT22;11707;50.830;4.364;2022-07-23T02:37:13;17.00;99.90
23079;DHT22;11707;50.830;4.364;2022-07-23T02:39:38;17.00;99.90
23079;DHT22;11707;50.830;4.364;2022-07-23T02:42:04;16.80;99.90
23079;DHT22;11707;50.830;4.364;2022-07-23T02:44:30;16.50;99.90
23079;DHT22;11707;50.830;4.364;2022-07-23T02:46:55;16.40;99.90
23079;DHT22;11707;50.830;4.364;2022-07-23T02:49:21;16.20;99.90
23079;DHT22;11707;50.830;4.364;2022-07-23T02:51:47;16.20;99.90
23079;DHT22;11707;50.830;4.364;2022-07-23T02:54:12;16.20;99.90
23079;DHT22;11707;50.830;4.364;2022-07-23T02:56:38;16.20;99.90
23079;DHT22;11707;50.830;4.364;2022-07-23T02:59:04;16.40;99.90
23079;DHT22;11707;50.830;4.364;2022-07-23T03:01:29;16.50;99.90
23079;DHT22;11707;50.830;4.364;2022-07-23T03:03:55;16.50;99.90
23079;DHT22;11707;50.830;4.364;2022-07-23T03:06:21;16.50;99.90
23079;DHT22;11707;50.830;4.364;2022-07-23T03:08:47;16.50;99.90
23079;DHT22;11707;50.830;4.364;2022-07-23T03:11:12;16.40;99.90
23079;DHT22;11707;50.830;4.364;2022-07-23T03:13:39;16.40;99.90
23079;DHT22;11707;50.830;4.364;2022-07-23T03:16:06;16.20;99.90
23079;DHT22;11707;50.830;4.364;2022-07-23T03:18:32;16.30;99.90
23079;DHT22;11707;50.830;4.364;2022-07-23T03:20:57;16.30;99.90
23079;DHT22;11707;50.830;4.364;2022-07-23T03:23:23;16.40;99.90
23079;DHT22;11707;50.830;4.364;2022-07-23T03:25:49;16.50;99.90
23079;DHT22;11707;50.830;4.364;2022-07-23T03:28:15;16.40;99.90
23079;DHT22;11707;50.830;4.364;2022-07-23T03:30:42;16.30;99.90
23079;DHT22;11707;50.830;4.364;2022-07-23T03:33:08;16.40;99.90
23079;DHT22;11707;50.830;4.364;2022-07-23T03:35:34;16.30;99.90
23079;DHT22;11707;50.830;4.364;2022-07-23T03:37:59;16.30;99.90
23079;DHT22;11707;50.830;4.364;2022-07-23T03:40:25;16.20;99.90
23079;DHT22;11707;50.830;4.364;2022-07-23T03:42:51;16.20;99.90
23079;DHT22;11707;50.830;4.364;2022-07-23T03:45:16;16.30;99.90
23079;DHT22;11707;50.830;4.364;2022-07-23T03:47:42;16.30;99.90
23079;DHT22;11707;50.830;4.364;2022-07-23T03:50:09;16.40;99.90
23079;DHT22;11707;50.830;4.364;2022-07-23T03:52:35;16.50;99.90
23079;DHT22;11707;50.830;4.364;2022-07-23T03:55:01;16.70;99.90
23079;DHT22;11707;50.830;4.364;2022-07-23T03:57:27;16.70;99.90
23079;DHT22;11707;50.830;4.364;2022-07-23T03:59:53;16.70;99.90
23079;DHT22;11707;50.830;4.364;2022-07-23T04:02:19;16.60;99.90
23079;DHT22;11707;50.830;4.364;2022-07-23T04:04:44;16.70;99.90
23079;DHT22;11707;50.830;4.364;2022-07-23T04:07:10;16.80;99.90
23079;DHT22;11707;50.830;4.364;2022-07-23T04:09:36;17.00;99.90
23079;DHT22;11707;50.830;4.364;2022-07-23T04:12:01;17.00;99.90
23079;DHT22;11707;50.830;4.364;2022-07-23T04:14:27;17.00;99.90
23079;DHT22;11707;50.830;4.364;2022-07-23T04:16:53;17.00;99.90
23079;DHT22;11707;50.830;4.364;2022-07-23T04:19:18;17.00;99.90
23079;DHT22;11707;50.830;4.364;2022-07-23T04:21:44;17.10;99.90
23079;DHT22;11707;50.830;4.364;2022-07-23T04:24:10;17.20;99.90
23079;DHT22;11707;50.830;4.364;2022-07-23T04:26:35;17.20;99.90
23079;DHT22;11707;50.830;4.364;2022-07-23T04:29:01;17.20;99.90
23079;DHT22;11707;50.830;4.364;2022-07-23T04:31:27;17.20;99.90
23079;DHT22;11707;50.830;4.364;2022-07-23T04:33:53;17.10;99.90
23079;DHT22;11707;50.830;4.364;2022-07-23T04:36:18;17.20;99.90
23079;DHT22;11707;50.830;4.364;2022-07-23T04:38:44;17.20;99.90
23079;DHT22;11707;50.830;4.364;2022-07-23T04:41:10;17.20;99.90
23079;DHT22;11707;50.830;4.364;2022-07-23T04:43:35;17.20;99.90
23079;DHT22;11707;50.830;4.364;2022-07-23T04:46:01;17.20;99.90
23079;DHT22;11707;50.830;4.364;2022-07-23T04:48:27;17.30;99.90
23079;DHT22;11707;50.830;4.364;2022-07-23T04:50:52;17.20;99.90
23079;DHT22;11707;50.830;4.364;2022-07-23T04:53:18;17.20;99.90
23079;DHT22;11707;50.830;4.364;2022-07-23T04:55:45;17.20;99.90
23079;DHT22;11707;50.830;4.364;2022-07-23T04:58:10;17.30;99.90
23079;DHT22;11707;50.830;4.364;2022-07-23T05:00:36;17.20;99.90
23079;DHT22;11707;50.830;4.364;2022-07-23T05:03:02;17.10;99.90
23079;DHT22;11707;50.830;4.364;2022-07-23T05:05:27;17.00;99.90
23079;DHT22;11707;50.830;4.364;2022-07-23T05:07:53;17.00;99.90
23079;DHT22;11707;50.830;4.364;2022-07-23T05:10:19;17.00;99.90
23079;DHT22;11707;50.830;4.364;2022-07-23T05:12:44;17.20;99.90
23079;DHT22;11707;50.830;4.364;2022-07-23T05:15:10;17.20;99.90
23079;DHT22;11707;50.830;4.364;2022-07-23T05:17:36;17.20;99.90
23079;DHT22;11707;50.830;4.364;2022-07-23T05:20:01;17.10;99.90
23079;DHT22;11707;50.830;4.364;2022-07-23T05:22:28;17.30;99.90
23079;DHT22;11707;50.830;4.364;2022-07-23T05:24:54;17.30;99.90
23079;DHT22;11707;50.830;4.364;2022-07-23T05:27:20;17.30;99.90
23079;DHT22;11707;50.830;4.364;2022-07-23T05:29:45;17.30;99.90
23079;DHT22;11707;50.830;4.364;2022-07-23T05:32:11;17.40;99.90
23079;DHT22;11707;50.830;4.364;2022-07-23T05:34:36;17.40;99.90
23079;DHT22;11707;50.830;4.364;2022-07-23T05:37:02;17.40;99.90
23079;DHT22;11707;50.830;4.364;2022-07-23T05:39:28;17.50;99.90
23079;DHT22;11707;50.830;4.364;2022-07-23T05:41:53;17.60;99.90
23079;DHT22;11707;50.830;4.364;2022-07-23T05:44:19;17.80;99.90
23079;DHT22;11707;50.830;4.364;2022-07-23T05:46:46;17.60;99.90
23079;DHT22;11707;50.830;4.364;2022-07-23T05:49:11;17.50;99.90
23079;DHT22;11707;50.830;4.364;2022-07-23T05:51:37;17.50;99.90
23079;DHT22;11707;50.830;4.364;2022-07-23T05:54:03;17.50;99.90
23079;DHT22;11707;50.830;4.364;2022-07-23T05:56:28;17.40;99.90
23079;DHT22;11707;50.830;4.364;2022-07-23T05:58:54;17.20;99.90
23079;DHT22;11707;50.830;4.364;2022-07-23T06:01:20;17.20;99.90
23079;DHT22;11707;50.830;4.364;2022-07-23T06:03:45;17.20;99.90
23079;DHT22;11707;50.830;4.364;2022-07-23T06:06:11;17.40;99.90
23079;DHT22;11707;50.830;4.364;2022-07-23T06:08:37;17.50;99.90
23079;DHT22;11707;50.830;4.364;2022-07-23T06:11:03;17.60;99.90
23079;DHT22;11707;50.830;4.364;2022-07-23T06:13:28;17.70;99.90
23079;DHT22;11707;50.830;4.364;2022-07-23T06:15:54;17.70;99.90
23079;DHT22;11707;50.830;4.364;2022-07-23T06:18:19;17.60;99.90
23079;DHT22;11707;50.830;4.364;2022-07-23T06:20:45;17.50;99.90
23079;DHT22;11707;50.830;4.364;2022-07-23T06:23:11;17.60;99.90
23079;DHT22;11707;50.830;4.364;2022-07-23T06:25:38;17.60;99.90
23079;DHT22;11707;50.830;4.364;2022-07-23T06:28:03;17.50;99.90
23079;DHT22;11707;50.830;4.364;2022-07-23T06:30:29;17.60;99.90
23079;DHT22;11707;50.830;4.364;2022-07-23T06:32:55;17.60;99.90
23079;DHT22;11707;50.830;4.364;2022-07-23T06:35:21;17.80;99.90
23079;DHT22;11707;50.830;4.364;2022-07-23T06:37:46;18.00;99.90
23079;DHT22;11707;50.830;4.364;2022-07-23T06:40:12;18.10;99.90
23079;DHT22;11707;50.830;4.364;2022-07-23T06:42:38;18.30;99.90
23079;DHT22;11707;50.830;4.364;2022-07-23T06:45:08;18.30;99.90
23079;DHT22;11707;50.830;4.364;2022-07-23T06:47:34;18.40;99.90
23079;DHT22;11707;50.830;4.364;2022-07-23T06:49:59;18.40;99.90
23079;DHT22;11707;50.830;4.364;2022-07-23T06:52:26;18.40;99.90
23079;DHT22;11707;50.830;4.364;2022-07-23T06:54:52;18.40;99.90
23079;DHT22;11707;50.830;4.364;2022-07-23T06:57:18;18.40;99.90
23079;DHT22;11707;50.830;4.364;2022-07-23T06:59:44;18.30;99.90
23079;DHT22;11707;50.830;4.364;2022-07-23T07:02:10;18.50;99.90
23079;DHT22;11707;50.830;4.364;2022-07-23T07:04:35;18.60;99.90
23079;DHT22;11707;50.830;4.364;2022-07-23T07:07:01;18.60;99.90
23079;DHT22;11707;50.830;4.364;2022-07-23T07:09:27;18.60;99.90
23079;DHT22;11707;50.830;4.364;2022-07-23T07:11:52;18.40;99.90
23079;DHT22;11707;50.830;4.364;2022-07-23T07:14:18;18.60;99.90
23079;DHT22;11707;50.830;4.364;2022-07-23T07:16:44;18.70;99.90
23079;DHT22;11707;50.830;4.364;2022-07-23T07:19:09;18.90;99.90
23079;DHT22;11707;50.830;4.364;2022-07-23T07:21:35;19.30;99.90
23079;DHT22;11707;50.830;4.364;2022-07-23T07:24:01;19.60;99.90
23079;DHT22;11707;50.830;4.364;2022-07-23T07:26:27;19.80;99.90
23079;DHT22;11707;50.830;4.364;2022-07-23T07:28:52;19.90;99.90
23079;DHT22;11707;50.830;4.364;2022-07-23T07:31:18;19.90;99.90
23079;DHT22;11707;50.830;4.364;2022-07-23T07:33:43;19.90;99.90
23079;DHT22;11707;50.830;4.364;2022-07-23T07:36:09;19.60;99.90
23079;DHT22;11707;50.830;4.364;2022-07-23T07:38:35;19.60;99.90
23079;DHT22;11707;50.830;4.364;2022-07-23T07:41:01;19.90;99.90
23079;DHT22;11707;50.830;4.364;2022-07-23T07:43:26;19.90;99.90
23079;DHT22;11707;50.830;4.364;2022-07-23T07:45:52;19.80;99.90
23079;DHT22;11707;50.830;4.364;2022-07-23T07:48:18;19.90;99.90
23079;DHT22;11707;50.830;4.364;2022-07-23T07:50:44;19.80;99.90
23079;DHT22;11707;50.830;4.364;2022-07-23T07:53:09;19.60;99.90
23079;DHT22;11707;50.830;4.364;2022-07-23T07:55:35;19.90;99.90
23079;DHT22;11707;50.830;4.364;2022-07-23T07:58:01;20.00;99.90
23079;DHT22;11707;50.830;4.364;2022-07-23T08:00:27;20.10;99.90
23079;DHT22;11707;50.830;4.364;2022-07-23T08:02:53;20.10;99.90
23079;DHT22;11707;50.830;4.364;2022-07-23T08:05:25;20.30;99.90
23079;DHT22;11707;50.830;4.364;2022-07-23T08:07:51;20.40;99.90
23079;DHT22;11707;50.830;4.364;2022-07-23T08:10:17;20.50;99.90
23079;DHT22;11707;50.830;4.364;2022-07-23T08:12:51;20.30;99.90
23079;DHT22;11707;50.830;4.364;2022-07-23T08:15:18;20.40;99.90
23079;DHT22;11707;50.830;4.364;2022-07-23T08:17:45;20.60;99.90
23079;DHT22;11707;50.830;4.364;2022-07-23T08:20:13;20.90;99.90
23079;DHT22;11707;50.830;4.364;2022-07-23T08:22:51;21.10;99.90
23079;DHT22;11707;50.830;4.364;2022-07-23T08:25:21;21.20;99.90
23079;DHT22;11707;50.830;4.364;2022-07-23T08:27:47;21.30;99.90
23079;DHT22;11707;50.830;4.364;2022-07-23T08:30:14;21.30;99.90
23079;DHT22;11707;50.830;4.364;2022-07-23T08:35:14;21.70;99.90
23079;DHT22;11707;50.830;4.364;2022-07-23T08:37:40;22.00;99.90
23079;DHT22;11707;50.830;4.364;2022-07-23T08:40:06;22.30;99.90
23079;DHT22;11707;50.830;4.364;2022-07-23T08:42:33;22.60;99.90
23079;DHT22;11707;50.830;4.364;2022-07-23T08:45:02;22.30;99.90
23079;DHT22;11707;50.830;4.364;2022-07-23T08:47:29;22.00;99.90
23079;DHT22;11707;50.830;4.364;2022-07-23T08:49:56;22.30;99.90
23079;DHT22;11707;50.830;4.364;2022-07-23T08:52:22;22.30;99.90
23079;DHT22;11707;50.830;4.364;2022-07-23T08:54:48;22.40;99.90
23079;DHT22;11707;50.830;4.364;2022-07-23T08:57:14;22.50;99.90
23079;DHT22;11707;50.830;4.364;2022-07-23T08:59:43;22.50;99.90
23079;DHT22;11707;50.830;4.364;2022-07-23T09:02:16;22.00;99.90
23079;DHT22;11707;50.830;4.364;2022-07-23T09:04:41;21.80;99.90
23079;DHT22;11707;50.830;4.364;2022-07-23T09:07:08;21.90;99.90
23079;DHT22;11707;50.830;4.364;2022-07-23T09:09:33;21.90;99.90
23079;DHT22;11707;50.830;4.364;2022-07-23T09:12:07;22.00;99.90
23079;DHT22;11707;50.830;4.364;2022-07-23T09:14:42;22.00;99.90
23079;DHT22;11707;50.830;4.364;2022-07-23T09:17:13;21.90;99.90
23079;DHT22;11707;50.830;4.364;2022-07-23T09:19:41;22.10;99.90
23079;DHT22;11707;50.830;4.364;2022-07-23T09:22:26;22.30;99.90
23079;DHT22;11707;50.830;4.364;2022-07-23T09:25:10;22.30;99.90
23079;DHT22;11707;50.830;4.364;2022-07-23T09:27:57;22.50;99.90
23079;DHT22;11707;50.830;4.364;2022-07-23T09:30:27;22.50;99.90
23079;DHT22;11707;50.830;4.364;2022-07-23T09:33:13;22.50;99.90
23079;DHT22;11707;50.830;4.364;2022-07-23T09:35:54;22.30;99.90
23079;DHT22;11707;50.830;4.364;2022-07-23T09:38:22;22.30;99.90
23079;DHT22;11707;50.830;4.364;2022-07-23T09:41:09;22.50;99.90
23079;DHT22;11707;50.830;4.364;2022-07-23T09:43:35;22.80;99.90
23079;DHT22;11707;50.830;4.364;2022-07-23T09:46:39;23.00;99.90
23079;DHT22;11707;50.830;4.364;2022-07-23T09:49:31;23.10;99.90
23079;DHT22;11707;50.830;4.364;2022-07-23T09:51:59;23.20;99.90
23079;DHT22;11707;50.830;4.364;2022-07-23T09:54:31;23.40;99.90
23079;DHT22;11707;50.830;4.364;2022-07-23T09:57:01;23.40;99.90
23079;DHT22;11707;50.830;4.364;2022-07-23T09:59:32;23.40;99.90
23079;DHT22;11707;50.830;4.364;2022-07-23T10:01:59;23.60;99.90
23079;DHT22;11707;50.830;4.364;2022-07-23T10:04:27;23.50;99.90
23079;DHT22;11707;50.830;4.364;2022-07-23T10:06:56;23.60;99.90
23079;DHT22;11707;50.830;4.364;2022-07-23T10:09:31;23.30;99.90
23079;DHT22;11707;50.830;4.364;2022-07-23T10:11:59;23.20;99.90
23079;DHT22;11707;50.830;4.364;2022-07-23T10:14:41;23.10;99.90
23079;DHT22;11707;50.830;4.364;2022-07-23T10:17:08;23.20;99.90
23079;DHT22;11707;50.830;4.364;2022-07-23T10:19:34;23.30;99.90
23079;DHT22;11707;50.830;4.364;2022-07-23T10:22:03;23.50;99.90
23079;DHT22;11707;50.830;4.364;2022-07-23T10:32:43;23.80;99.90
23079;DHT22;11707;50.830;4.364;2022-07-23T10:35:38;24.10;99.90
23079;DHT22;11707;50.830;4.364;2022-07-23T10:38:20;24.30;99.90
23079;DHT22;11707;50.830;4.364;2022-07-23T10:41:05;24.50;99.90
23079;DHT22;11707;50.830;4.364;2022-07-23T10:43:31;24.50;99.90
23079;DHT22;11707;50.830;4.364;2022-07-23T10:52:19;24.80;99.90
23079;DHT22;11707;50.830;4.364;2022-07-23T10:54:48;25.10;99.90
23079;DHT22;11707;50.830;4.364;2022-07-23T10:57:16;25.10;99.90
23079;DHT22;11707;50.830;4.364;2022-07-23T11:02:29;24.80;99.90
23079;DHT22;11707;50.830;4.364;2022-07-23T11:04:59;25.00;99.90
23079;DHT22;11707;50.830;4.364;2022-07-23T11:07:25;25.00;99.90
23079;DHT22;11707;50.830;4.364;2022-07-23T11:09:51;24.60;99.90
23079;DHT22;11707;50.830;4.364;2022-07-23T11:17:27;24.60;99.90
23079;DHT22;11707;50.830;4.364;2022-07-23T11:20:12;24.70;99.90
23079;DHT22;11707;50.830;4.364;2022-07-23T11:22:40;24.50;99.90
23079;DHT22;11707;50.830;4.364;2022-07-23T11:25:11;24.30;99.90
23079;DHT22;11707;50.830;4.364;2022-07-23T11:27:45;24.50;99.90
23079;DHT22;11707;50.830;4.364;2022-07-23T11:32:54;25.20;99.90
23079;DHT22;11707;50.830;4.364;2022-07-23T11:35:25;25.20;99.90
23079;DHT22;11707;50.830;4.364;2022-07-23T11:37:54;25.30;99.90
23079;DHT22;11707;50.830;4.364;2022-07-23T11:40:24;25.30;99.90
23079;DHT22;11707;50.830;4.364;2022-07-23T11:43:08;25.30;99.90
23079;DHT22;11707;50.830;4.364;2022-07-23T11:48:07;25.00;99.90
23079;DHT22;11707;50.830;4.364;2022-07-23T11:50:33;24.60;99.90
23079;DHT22;11707;50.830;4.364;2022-07-23T11:53:00;24.50;99.90
23079;DHT22;11707;50.830;4.364;2022-07-23T11:55:25;24.50;99.90
23079;DHT22;11707;50.830;4.364;2022-07-23T11:57:52;24.30;99.90
23079;DHT22;11707;50.830;4.364;2022-07-23T12:00:22;24.40;99.90
23079;DHT22;11707;50.830;4.364;2022-07-23T12:02:50;24.50;99.90
23079;DHT22;11707;50.830;4.364;2022-07-23T12:05:25;24.70;99.90
23079;DHT22;11707;50.830;4.364;2022-07-23T12:07:53;25.00;99.90
23079;DHT22;11707;50.830;4.364;2022-07-23T12:10:34;25.20;99.90
23079;DHT22;11707;50.830;4.364;2022-07-23T12:13:03;25.40;99.90
23079;DHT22;11707;50.830;4.364;2022-07-23T12:15:32;25.50;99.90
23079;DHT22;11707;50.830;4.364;2022-07-23T12:18:02;25.30;99.90
23079;DHT22;11707;50.830;4.364;2022-07-23T12:20:31;25.20;99.90
23079;DHT22;11707;50.830;4.364;2022-07-23T12:23:00;25.40;99.90
23079;DHT22;11707;50.830;4.364;2022-07-23T12:25:29;25.20;99.90
23079;DHT22;11707;50.830;4.364;2022-07-23T12:28:05;25.40;99.90
23079;DHT22;11707;50.830;4.364;2022-07-23T12:30:37;25.80;99.90
23079;DHT22;11707;50.830;4.364;2022-07-23T12:33:04;26.00;99.90
23079;DHT22;11707;50.830;4.364;2022-07-23T12:35:41;26.20;99.90
23079;DHT22;11707;50.830;4.364;2022-07-23T12:38:10;26.40;99.90
23079;DHT22;11707;50.830;4.364;2022-07-23T12:43:19;26.50;99.90
23079;DHT22;11707;50.830;4.364;2022-07-23T12:46:03;26.70;99.90
23079;DHT22;11707;50.830;4.364;2022-07-23T12:48:50;26.40;99.90
23079;DHT22;11707;50.830;4.364;2022-07-23T12:51:18;26.70;99.90
23079;DHT22;11707;50.830;4.364;2022-07-23T12:53:46;27.20;99.90
23079;DHT22;11707;50.830;4.364;2022-07-23T12:56:26;28.20;99.70
23079;DHT22;11707;50.830;4.364;2022-07-23T12:58:55;29.70;97.20
23079;DHT22;11707;50.830;4.364;2022-07-23T13:04:07;31.40;93.90
23079;DHT22;11707;50.830;4.364;2022-07-23T13:06:35;31.50;92.70
23079;DHT22;11707;50.830;4.364;2022-07-23T13:09:02;31.70;89.80
23079;DHT22;11707;50.830;4.364;2022-07-23T13:11:29;31.10;88.50
23079;DHT22;11707;50.830;4.364;2022-07-23T13:13:54;31.10;89.10
23079;DHT22;11707;50.830;4.364;2022-07-23T13:16:20;30.30;89.30
23079;DHT22;11707;50.830;4.364;2022-07-23T13:18:46;30.50;91.00
23079;DHT22;11707;50.830;4.364;2022-07-23T13:21:11;32.30;86.70
23079;DHT22;11707;50.830;4.364;2022-07-23T13:23:37;33.10;83.00
23079;DHT22;11707;50.830;4.364;2022-07-23T13:26:03;33.90;78.50
23079;DHT22;11707;50.830;4.364;2022-07-23T13:28:29;34.20;73.50
23079;DHT22;11707;50.830;4.364;2022-07-23T13:30:56;34.40;72.20
23079;DHT22;11707;50.830;4.364;2022-07-23T13:33:23;33.70;71.30
23079;DHT22;11707;50.830;4.364;2022-07-23T13:35:51;32.40;73.70
23079;DHT22;11707;50.830;4.364;2022-07-23T13:38:19;31.80;75.20
23079;DHT22;11707;50.830;4.364;2022-07-23T13:40:46;31.40;76.10
23079;DHT22;11707;50.830;4.364;2022-07-23T13:43:15;31.10;77.10
23079;DHT22;11707;50.830;4.364;2022-07-23T13:45:42;31.00;77.50
23079;DHT22;11707;50.830;4.364;2022-07-23T13:48:08;31.20;76.80
23079;DHT22;11707;50.830;4.364;2022-07-23T13:50:35;31.10;76.90
23079;DHT22;11707;50.830;4.364;2022-07-23T13:53:06;31.00;77.10
23079;DHT22;11707;50.830;4.364;2022-07-23T13:55:32;30.80;77.50
23079;DHT22;11707;50.830;4.364;2022-07-23T13:57:59;30.20;80.20
23079;DHT22;11707;50.830;4.364;2022-07-23T14:00:26;30.10;79.40
23079;DHT22;11707;50.830;4.364;2022-07-23T14:02:52;29.50;82.20
23079;DHT22;11707;50.830;4.364;2022-07-23T14:05:18;28.80;84.10
23079;DHT22;11707;50.830;4.364;2022-07-23T14:07:44;28.00;86.90
23079;DHT22;11707;50.830;4.364;2022-07-23T14:10:12;27.40;90.10
23079;DHT22;11707;50.830;4.364;2022-07-23T14:12:38;27.10;90.40
23079;DHT22;11707;50.830;4.364;2022-07-23T14:15:05;27.20;90.80
23079;DHT22;11707;50.830;4.364;2022-07-23T14:17:32;27.50;91.20
23079;DHT22;11707;50.830;4.364;2022-07-23T14:19:58;28.40;90.20
23079;DHT22;11707;50.830;4.364;2022-07-23T14:22:24;29.20;88.60
23079;DHT22;11707;50.830;4.364;2022-07-23T14:24:50;29.90;86.50
23079;DHT22;11707;50.830;4.364;2022-07-23T14:27:16;30.30;83.60
23079;DHT22;11707;50.830;4.364;2022-07-23T14:29:42;30.50;83.20
23079;DHT22;11707;50.830;4.364;2022-07-23T14:32:08;30.70;82.20
23079;DHT22;11707;50.830;4.364;2022-07-23T14:34:35;31.00;81.20
23079;DHT22;11707;50.830;4.364;2022-07-23T14:37:00;31.60;79.20
23079;DHT22;11707;50.830;4.364;2022-07-23T14:39:26;31.20;78.50
23079;DHT22;11707;50.830;4.364;2022-07-23T14:41:52;30.10;82.00
23079;DHT22;11707;50.830;4.364;2022-07-23T14:44:18;30.50;81.70
23079;DHT22;11707;50.830;4.364;2022-07-23T14:46:44;30.70;80.00
23079;DHT22;11707;50.830;4.364;2022-07-23T14:49:09;30.50;80.00
23079;DHT22;11707;50.830;4.364;2022-07-23T14:51:35;30.10;81.40
23079;DHT22;11707;50.830;4.364;2022-07-23T14:54:03;29.20;84.30
23079;DHT22;11707;50.830;4.364;2022-07-23T14:56:29;29.00;84.90
23079;DHT22;11707;50.830;4.364;2022-07-23T14:58:54;29.00;85.20
23079;DHT22;11707;50.830;4.364;2022-07-23T15:01:21;29.20;85.00
23079;DHT22;11707;50.830;4.364;2022-07-23T15:03:48;29.50;84.40
23079;DHT22;11707;50.830;4.364;2022-07-23T15:06:13;30.50;82.50
23079;DHT22;11707;50.830;4.364;2022-07-23T15:08:40;31.20;79.00
23079;DHT22;11707;50.830;4.364;2022-07-23T15:11:06;31.40;77.80
23079;DHT22;11707;50.830;4.364;2022-07-23T15:13:35;30.90;78.10
23079;DHT22;11707;50.830;4.364;2022-07-23T15:16:00;30.70;79.80
23079;DHT22;11707;50.830;4.364;2022-07-23T15:18:26;31.30;78.30
23079;DHT22;11707;50.830;4.364;2022-07-23T15:20:52;32.70;75.50
23079;DHT22;11707;50.830;4.364;2022-07-23T15:23:21;33.80;72.20
23079;DHT22;11707;50.830;4.364;2022-07-23T15:25:46;34.40;69.60
23079;DHT22;11707;50.830;4.364;2022-07-23T15:28:12;34.00;67.70
23079;DHT22;11707;50.830;4.364;2022-07-23T15:30:38;33.30;68.30
23079;DHT22;11707;50.830;4.364;2022-07-23T15:33:05;31.70;71.40
23079;DHT22;11707;50.830;4.364;2022-07-23T15:35:31;30.50;74.80
23079;DHT22;11707;50.830;4.364;2022-07-23T15:37:57;29.10;79.70
23079;DHT22;11707;50.830;4.364;2022-07-23T15:40:23;28.70;80.90
23079;DHT22;11707;50.830;4.364;2022-07-23T15:42:49;28.30;83.10
23079;DHT22;11707;50.830;4.364;2022-07-23T15:45:16;28.10;85.10
23079;DHT22;11707;50.830;4.364;2022-07-23T15:47:42;27.60;86.70
23079;DHT22;11707;50.830;4.364;2022-07-23T15:50:08;27.30;87.70
23079;DHT22;11707;50.830;4.364;2022-07-23T15:52:37;27.50;87.80
23079;DHT22;11707;50.830;4.364;2022-07-23T15:55:03;27.50;88.20
23079;DHT22;11707;50.830;4.364;2022-07-23T15:57:29;27.50;88.80
23079;DHT22;11707;50.830;4.364;2022-07-23T15:59:54;27.50;88.90
23079;DHT22;11707;50.830;4.364;2022-07-23T16:02:23;27.80;88.60
23079;DHT22;11707;50.830;4.364;2022-07-23T16:04:49;28.20;88.10
23079;DHT22;11707;50.830;4.364;2022-07-23T16:07:18;28.00;86.80